createdAt,value
2023-02-18T00:02:59.506Z,12.49
2023-02-18T00:05:26.072Z,12.46
2023-02-18T00:07:53.476Z,12.43
2023-02-18T00:23:00.149Z,12.42
2023-02-18T00:25:26.707Z,12.42
2023-02-18T00:27:53.321Z,12.40
2023-02-18T00:30:19.983Z,12.43
2023-02-18T00:32:46.575Z,12.37
2023-02-18T00:35:13.132Z,12.34
2023-02-18T00:37:39.657Z,12.37
2023-02-18T00:40:07.025Z,12.31
2023-02-18T00:42:34.036Z,12.37
2023-02-18T00:47:38.424Z,12.37
2023-02-18T00:50:05.506Z,12.38
2023-02-18T00:52:32.019Z,12.36
2023-02-18T00:54:58.542Z,12.35
2023-02-18T00:57:25.061Z,12.36
2023-02-18T00:59:51.565Z,12.31
2023-02-18T01:02:18.213Z,12.38
2023-02-18T01:04:44.837Z,12.31
2023-02-18T01:07:11.605Z,12.28
2023-02-18T01:09:38.150Z,12.34
2023-02-18T01:12:04.850Z,12.32
2023-02-18T01:14:31.388Z,12.32
2023-02-18T01:16:57.940Z,12.28
2023-02-18T01:19:24.470Z,12.29
2023-02-18T01:21:51.032Z,12.32
2023-02-18T01:24:17.573Z,12.29
2023-02-18T01:26:44.117Z,12.29
2023-02-18T01:29:10.703Z,12.33
2023-02-18T01:31:37.366Z,12.30
2023-02-18T01:34:04.109Z,12.33
2023-02-18T01:36:30.658Z,12.33
2023-02-18T01:38:57.280Z,12.36
2023-02-18T01:41:23.962Z,12.41
2023-02-18T01:44:14.515Z,12.37
2023-02-18T01:46:41.144Z,12.39
2023-02-18T01:51:50.465Z,12.34
2023-02-18T01:54:22.689Z,12.36
2023-02-18T01:56:57.973Z,12.36
2023-02-18T01:59:28.856Z,12.31
2023-02-18T02:04:27.868Z,12.34
2023-02-18T02:06:54.990Z,12.34
2023-02-18T02:09:24.460Z,12.33
2023-02-18T02:12:16.167Z,12.34
2023-02-18T02:15:19.101Z,12.34
2023-02-18T02:18:00.019Z,12.34
2023-02-18T02:23:53.439Z,12.32
2023-02-18T02:26:44.496Z,12.34
2023-02-18T02:29:29.124Z,12.30
2023-02-18T02:32:08.003Z,12.36
2023-02-18T02:34:55.322Z,12.28
2023-02-18T02:37:25.763Z,12.27
2023-02-18T02:40:27.657Z,12.28
2023-02-18T02:43:12.537Z,12.30
2023-02-18T02:45:48.246Z,12.24
2023-02-18T02:48:42.778Z,12.18
2023-02-18T02:51:32.340Z,12.20
2023-02-18T02:54:17.626Z,12.23
2023-02-18T02:56:44.798Z,12.27
2023-02-18T02:59:18.504Z,12.24
2023-02-18T03:02:03.360Z,12.21
2023-02-18T03:04:56.593Z,12.20
2023-02-18T03:07:39.938Z,12.25
2023-02-18T03:10:57.431Z,12.24
2023-02-18T03:16:39.155Z,12.24
2023-02-18T03:19:21.770Z,12.22
2023-02-18T03:22:07.018Z,12.20
2023-02-18T03:24:38.554Z,12.21
2023-02-18T03:27:21.601Z,12.20
2023-02-18T03:29:54.018Z,12.18
2023-02-18T03:32:24.212Z,12.21
2023-02-18T03:34:57.509Z,12.15
2023-02-18T03:37:24.309Z,12.12
2023-02-18T03:39:57.206Z,12.16
2023-02-18T03:42:28.079Z,12.12
2023-02-18T03:44:55.275Z,12.14
2023-02-18T03:47:21.977Z,12.13
2023-02-18T03:49:48.538Z,12.10
2023-02-18T03:52:15.113Z,12.08
2023-02-18T03:54:42.373Z,12.10
2023-02-18T03:57:08.998Z,12.03
2023-02-18T03:59:35.585Z,12.01
2023-02-18T04:02:02.784Z,12.02
2023-02-18T04:04:29.671Z,12.01
2023-02-18T04:06:56.359Z,12.02
2023-02-18T04:09:22.917Z,12.10
2023-02-18T04:11:49.442Z,12.00
2023-02-18T04:14:16.036Z,12.00
2023-02-18T04:16:42.664Z,11.99
2023-02-18T04:19:09.268Z,11.96
2023-02-18T04:21:35.796Z,11.90
2023-02-18T04:24:02.405Z,11.85
2023-02-18T04:26:29.708Z,11.82
2023-02-18T04:28:56.321Z,11.77
2023-02-18T04:31:23.004Z,11.80
2023-02-18T04:33:49.661Z,11.83
2023-02-18T04:36:16.482Z,11.75
2023-02-18T04:38:43.270Z,11.85
2023-02-18T04:41:09.938Z,11.83
2023-02-18T04:43:36.541Z,11.86
2023-02-18T04:46:03.269Z,11.83
2023-02-18T04:48:30.581Z,11.88
2023-02-18T04:50:57.093Z,11.84
2023-02-18T04:53:23.625Z,11.82
2023-02-18T04:55:51.810Z,11.81
2023-02-18T04:58:19.139Z,11.81
2023-02-18T05:00:46.187Z,11.80
2023-02-18T05:05:46.618Z,11.79
2023-02-18T05:08:13.197Z,11.84
2023-02-18T05:10:39.788Z,11.82
2023-02-18T05:13:06.370Z,11.77
2023-02-18T05:15:33.005Z,11.78
2023-02-18T05:17:59.711Z,11.78
2023-02-18T05:20:26.514Z,11.77
2023-02-18T05:22:53.070Z,11.71
2023-02-18T05:27:51.317Z,11.73
2023-02-18T05:30:17.994Z,11.69
2023-02-18T05:32:44.703Z,11.63
2023-02-18T05:35:11.504Z,11.66
2023-02-18T05:37:38.143Z,11.54
2023-02-18T05:40:05.700Z,11.60
2023-02-18T05:45:07.502Z,11.46
2023-02-18T05:47:34.098Z,11.51
2023-02-18T05:50:00.710Z,11.45
2023-02-18T05:55:06.512Z,11.47
2023-02-18T05:57:33.144Z,11.49
2023-02-18T06:00:00.273Z,11.49
2023-02-18T06:02:26.971Z,11.41
2023-02-18T06:04:53.526Z,11.31
2023-02-18T06:07:20.751Z,11.41
2023-02-18T06:09:47.428Z,11.37
2023-02-18T06:12:13.964Z,11.37
2023-02-18T06:14:43.510Z,11.36
2023-02-18T06:17:12.074Z,11.35
2023-02-18T06:19:39.361Z,11.37
2023-02-18T06:22:06.590Z,11.35
2023-02-18T06:24:33.479Z,11.35
2023-02-18T06:27:00.112Z,11.38
2023-02-18T06:29:26.865Z,11.40
2023-02-18T06:31:53.465Z,11.43
2023-02-18T06:34:20.025Z,11.41
2023-02-18T06:36:46.554Z,11.41
2023-02-18T06:39:13.085Z,11.39
2023-02-18T06:41:40.647Z,11.39
2023-02-18T06:44:07.810Z,11.46
2023-02-18T06:49:08.052Z,11.41
2023-02-18T06:51:34.637Z,11.55
2023-02-18T06:56:32.573Z,11.44
2023-02-18T06:58:59.158Z,11.47
2023-02-18T07:01:25.784Z,11.52
2023-02-18T07:03:52.322Z,11.56
2023-02-18T07:06:18.929Z,11.58
2023-02-18T07:08:45.424Z,11.59
2023-02-18T07:11:11.962Z,11.63
2023-02-18T07:13:38.447Z,11.66
2023-02-18T07:16:05.409Z,11.63
2023-02-18T07:18:32.012Z,11.65
2023-02-18T07:20:58.654Z,11.68
2023-02-18T07:23:25.187Z,11.70
2023-02-18T07:25:51.704Z,11.71
2023-02-18T07:28:18.304Z,11.76
2023-02-18T07:30:44.797Z,11.84
2023-02-18T07:33:11.380Z,11.83
2023-02-18T07:35:37.884Z,11.86
2023-02-18T07:40:37.992Z,11.97
2023-02-18T07:43:04.501Z,11.97
2023-02-18T07:48:02.252Z,12.26
2023-02-18T07:50:28.869Z,12.18
2023-02-18T07:52:55.430Z,12.15
2023-02-18T07:55:22.038Z,12.21
2023-02-18T07:57:57.545Z,12.20
2023-02-18T08:00:24.659Z,12.28
2023-02-18T08:07:59.932Z,12.26
2023-02-18T08:10:26.481Z,12.32
2023-02-18T08:12:52.966Z,12.36
2023-02-18T08:15:19.573Z,12.29
2023-02-18T08:20:24.337Z,12.30
2023-02-18T08:22:50.829Z,12.35
2023-02-18T08:25:29.057Z,12.43
2023-02-18T08:27:57.056Z,12.45
2023-02-18T08:30:23.639Z,12.49
2023-02-18T08:32:50.305Z,12.50
2023-02-18T08:35:17.188Z,12.56
2023-02-18T08:37:52.200Z,12.58
2023-02-18T08:40:21.070Z,12.58
2023-02-18T08:42:47.659Z,12.62
2023-02-18T08:45:14.208Z,12.70
2023-02-18T08:48:18.112Z,12.74
2023-02-18T08:50:28.344Z,12.76
2023-02-18T08:52:55.421Z,12.83
2023-02-18T08:55:22.141Z,12.88
2023-02-18T08:57:49.074Z,12.93
2023-02-18T09:00:17.289Z,13.02
2023-02-18T09:02:44.230Z,13.04
2023-02-18T09:05:11.181Z,13.10
2023-02-18T09:07:37.726Z,13.09
2023-02-18T09:10:04.863Z,13.11
2023-02-18T09:12:31.429Z,13.17
2023-02-18T09:14:58.097Z,13.18
2023-02-18T09:17:24.760Z,13.22
2023-02-18T09:19:51.319Z,13.36
2023-02-18T09:22:18.031Z,13.38
2023-02-18T09:24:44.553Z,13.46
2023-02-18T09:27:11.487Z,13.49
2023-02-18T09:32:14.566Z,13.66
2023-02-18T09:34:46.440Z,13.74
2023-02-18T09:37:13.505Z,13.76
2023-02-18T09:39:40.039Z,13.85
2023-02-18T09:42:12.372Z,13.97
2023-02-18T09:44:48.455Z,14.12
2023-02-18T09:47:35.863Z,14.31
2023-02-18T09:50:27.657Z,14.26
2023-02-18T09:52:54.386Z,14.33
2023-02-18T09:55:27.248Z,14.46
2023-02-18T09:57:57.255Z,14.36
2023-02-18T10:00:44.443Z,14.45
2023-02-18T10:03:18.545Z,14.27
2023-02-18T10:06:03.066Z,14.29
2023-02-18T10:08:40.241Z,14.29
2023-02-18T10:13:53.847Z,14.15
2023-02-18T10:16:23.693Z,14.28
2023-02-18T10:19:01.508Z,14.31
2023-02-18T10:21:33.179Z,14.42
2023-02-18T10:24:04.134Z,14.46
2023-02-18T10:26:33.588Z,14.48
2023-02-18T10:29:00.217Z,14.49
2023-02-18T10:31:37.697Z,14.60
2023-02-18T10:34:18.375Z,14.66
2023-02-18T10:36:49.784Z,14.72
2023-02-18T10:39:24.750Z,14.87
2023-02-18T10:42:00.469Z,14.79
2023-02-18T10:44:41.720Z,14.71
2023-02-18T10:47:29.601Z,14.69
2023-02-18T10:50:28.401Z,14.56
2023-02-18T10:52:59.408Z,14.50
2023-02-18T10:55:42.293Z,14.48
2023-02-18T10:58:29.957Z,14.46
2023-02-18T11:00:56.955Z,14.47
2023-02-18T11:05:59.200Z,14.45
2023-02-18T11:08:28.115Z,14.47
2023-02-18T11:13:32.908Z,14.55
2023-02-18T11:16:00.912Z,14.86
2023-02-18T11:18:40.438Z,14.73
2023-02-18T11:21:39.328Z,14.75
2023-02-18T11:26:48.176Z,14.69
2023-02-18T11:29:23.181Z,14.81
2023-02-18T11:31:53.254Z,14.78
2023-02-18T11:34:26.458Z,14.75
2023-02-18T11:36:54.246Z,14.81
2023-02-18T11:39:29.221Z,14.84
2023-02-18T11:42:00.516Z,14.86
2023-02-18T11:44:38.065Z,14.79
2023-02-18T11:47:09.317Z,14.80
2023-02-18T11:49:36.222Z,14.82
2023-02-18T11:52:26.865Z,14.81
2023-02-18T11:55:07.513Z,14.71
2023-02-18T11:57:38.105Z,14.65
2023-02-18T12:00:16.835Z,14.66
2023-02-18T12:02:43.436Z,14.55
2023-02-18T12:05:27.386Z,14.68
2023-02-18T12:08:07.750Z,14.72
2023-02-18T12:13:34.791Z,14.80
2023-02-18T12:16:22.789Z,14.85
2023-02-18T12:18:58.398Z,14.69
2023-02-18T12:21:30.778Z,14.64
2023-02-18T12:24:20.328Z,14.47
2023-02-18T12:26:54.765Z,14.51
2023-02-18T12:29:49.303Z,14.47
2023-02-18T12:32:27.914Z,15.23
2023-02-18T12:35:18.470Z,14.97
2023-02-18T12:38:13.009Z,14.73
2023-02-18T12:41:02.883Z,14.67
2023-02-18T12:43:51.589Z,14.54
2023-02-18T12:46:38.476Z,14.49
2023-02-18T12:49:34.004Z,14.50
2023-02-18T12:52:42.168Z,14.45
2023-02-18T12:55:42.578Z,14.44
2023-02-18T12:58:35.721Z,14.49
2023-02-18T13:01:40.035Z,14.52
2023-02-18T13:04:38.672Z,14.60
2023-02-18T13:07:14.270Z,14.50
2023-02-18T13:09:55.989Z,14.49
2023-02-18T13:12:34.666Z,14.53
2023-02-18T13:15:11.489Z,14.48
2023-02-18T13:17:41.337Z,14.44
2023-02-18T13:20:21.269Z,14.46
2023-02-18T13:22:50.449Z,14.41
2023-02-18T13:25:18.692Z,14.48
2023-02-18T13:28:21.426Z,14.70
2023-02-18T13:31:18.638Z,14.63
2023-02-18T13:33:57.431Z,14.76
2023-02-18T13:36:33.233Z,14.67
2023-02-18T13:39:06.001Z,14.58
2023-02-18T13:41:42.740Z,14.54
2023-02-18T13:44:29.711Z,14.48
2023-02-18T13:46:59.004Z,14.50
2023-02-18T13:49:34.579Z,14.61
2023-02-18T13:52:03.312Z,14.65
2023-02-18T13:54:34.314Z,14.65
2023-02-18T13:57:00.858Z,14.67
2023-02-18T13:59:40.122Z,14.77
2023-02-18T14:02:21.963Z,14.85
2023-02-18T14:07:33.515Z,14.88
2023-02-18T14:10:01.735Z,14.99
2023-02-18T14:12:37.761Z,14.93
2023-02-18T14:15:27.544Z,14.89
2023-02-18T14:18:02.950Z,14.79
2023-02-18T14:20:38.134Z,14.73
2023-02-18T14:23:37.103Z,14.66
2023-02-18T14:26:17.233Z,14.65
2023-02-18T14:28:44.932Z,14.63
2023-02-18T14:31:29.763Z,14.61
2023-02-18T14:33:59.500Z,14.52
2023-02-18T14:36:31.863Z,14.55
2023-02-18T14:39:24.514Z,14.57
2023-02-18T14:41:55.776Z,14.50
2023-02-18T14:44:28.401Z,14.51
2023-02-18T14:47:33.451Z,14.45
2023-02-18T14:50:03.869Z,14.45
2023-02-18T14:52:33.058Z,14.44
2023-02-18T14:55:01.932Z,14.36
2023-02-18T14:57:40.983Z,14.39
2023-02-18T15:00:16.290Z,14.40
2023-02-18T15:02:42.975Z,14.41
2023-02-18T15:05:19.217Z,14.43
2023-02-18T15:07:58.004Z,14.44
2023-02-18T15:10:41.754Z,14.38
2023-02-18T15:16:13.322Z,14.27
2023-02-18T15:18:53.560Z,14.21
2023-02-18T15:21:28.196Z,14.20
2023-02-18T15:23:55.410Z,14.15
2023-02-18T15:26:22.168Z,14.13
2023-02-18T15:28:58.386Z,14.12
2023-02-18T15:31:27.571Z,14.06
2023-02-18T15:33:54.190Z,13.98
2023-02-18T15:38:52.143Z,13.94
2023-02-18T15:41:22.774Z,13.92
2023-02-18T15:44:00.905Z,13.80
2023-02-18T15:46:27.955Z,13.78
2023-02-18T15:51:31.531Z,13.68
2023-02-18T15:54:02.909Z,13.69
2023-02-18T15:56:34.033Z,13.59
2023-02-18T15:59:24.736Z,13.59
2023-02-18T16:01:54.510Z,13.57
2023-02-18T16:04:22.983Z,13.58
2023-02-18T16:06:52.214Z,13.50
2023-02-18T16:09:29.643Z,13.52
2023-02-18T16:12:03.014Z,13.44
2023-02-18T16:14:46.902Z,13.46
2023-02-18T16:17:17.629Z,13.41
2023-02-18T16:20:05.364Z,13.39
2023-02-18T16:22:33.553Z,13.38
2023-02-18T16:28:12.852Z,13.39
2023-02-18T16:30:41.590Z,13.42
2023-02-18T16:33:08.701Z,13.33
2023-02-18T16:35:49.098Z,13.37
2023-02-18T16:38:19.077Z,13.47
2023-02-18T16:40:45.610Z,13.42
2023-02-18T16:43:18.088Z,13.34
2023-02-18T16:45:52.518Z,13.31
2023-02-18T16:48:32.074Z,13.24
2023-02-18T16:53:35.588Z,13.18
2023-02-18T16:56:02.967Z,13.22
2023-02-18T16:58:29.788Z,13.21
2023-02-18T17:00:57.142Z,13.24
2023-02-18T17:03:23.774Z,13.18
2023-02-18T17:08:26.667Z,13.19
2023-02-18T17:10:55.734Z,13.17
2023-02-18T17:13:28.275Z,13.09
2023-02-18T17:15:57.100Z,13.10
2023-02-18T17:18:24.605Z,13.10
2023-02-18T17:20:53.029Z,13.00
2023-02-18T17:23:23.047Z,13.04
2023-02-18T17:25:51.473Z,13.09
2023-02-18T17:28:19.395Z,13.04
2023-02-18T17:33:27.734Z,13.01
2023-02-18T17:35:54.358Z,13.04
2023-02-18T17:38:20.933Z,12.96
2023-02-18T17:40:50.141Z,12.96
2023-02-18T17:43:17.930Z,12.91
2023-02-18T17:45:50.794Z,12.85
2023-02-18T17:48:17.430Z,12.77
2023-02-18T17:50:44.411Z,12.81
2023-02-18T17:53:13.350Z,12.76
2023-02-18T17:55:42.679Z,12.68
2023-02-18T17:58:10.165Z,12.80
2023-02-18T18:00:40.196Z,12.72
2023-02-18T18:03:07.351Z,12.71
2023-02-18T18:05:36.306Z,12.73
2023-02-18T18:08:05.177Z,12.77
2023-02-18T18:10:35.350Z,13.25
2023-02-18T18:13:05.472Z,12.98
2023-02-18T18:15:43.428Z,12.88
2023-02-18T18:18:11.435Z,12.78
2023-02-18T18:20:38.687Z,12.67
2023-02-18T18:23:07.023Z,12.65
2023-02-18T18:25:38.979Z,12.59
2023-02-18T18:28:08.361Z,12.54
2023-02-18T18:30:37.960Z,12.51
2023-02-18T18:33:13.228Z,12.56
2023-02-18T18:35:39.738Z,12.49
2023-02-18T18:38:06.310Z,12.47
2023-02-18T18:40:33.821Z,12.44
2023-02-18T18:43:01.719Z,12.34
2023-02-18T18:45:34.445Z,12.34
2023-02-18T18:48:01.121Z,12.37
2023-02-18T18:50:28.264Z,12.30
2023-02-18T18:52:55.612Z,12.27
2023-02-18T18:55:22.148Z,12.26
2023-02-18T18:57:48.900Z,12.27
2023-02-18T19:00:17.526Z,12.32
2023-02-18T19:02:44.221Z,12.34
2023-02-18T19:05:22.038Z,12.34
2023-02-18T19:07:48.831Z,12.29
2023-02-18T19:10:16.946Z,12.24
2023-02-18T19:15:22.944Z,12.22
2023-02-18T19:17:52.700Z,12.16
2023-02-18T19:20:28.809Z,12.15
2023-02-18T19:22:55.386Z,12.04
2023-02-18T19:25:22.863Z,11.91
2023-02-18T19:27:50.656Z,11.77
2023-02-18T19:30:25.331Z,11.71
2023-02-18T19:32:53.917Z,11.63
2023-02-18T19:35:21.194Z,11.57
2023-02-18T19:37:48.265Z,11.50
2023-02-18T19:42:50.809Z,11.33
2023-02-18T19:45:18.718Z,11.16
2023-02-18T19:47:45.751Z,11.13
2023-02-18T19:50:14.907Z,11.09
2023-02-18T19:52:41.438Z,10.97
2023-02-18T19:55:08.516Z,10.93
2023-02-18T19:57:35.344Z,10.90
2023-02-18T20:00:02.965Z,10.85
2023-02-18T20:02:30.597Z,10.80
2023-02-18T20:05:01.673Z,10.76
2023-02-18T20:07:28.844Z,10.57
2023-02-18T20:09:55.714Z,10.56
2023-02-18T20:12:22.796Z,10.54
2023-02-18T20:14:50.311Z,10.55
2023-02-18T20:17:17.296Z,10.48
2023-02-18T20:19:43.805Z,10.51
2023-02-18T20:22:10.464Z,10.51
2023-02-18T20:24:37.971Z,10.37
2023-02-18T20:27:04.606Z,10.31
2023-02-18T20:29:33.563Z,10.26
2023-02-18T20:32:00.968Z,10.32
2023-02-18T20:34:27.887Z,10.31
2023-02-18T20:36:54.738Z,10.30
2023-02-18T20:39:22.712Z,10.36
2023-02-18T20:41:50.292Z,10.34
2023-02-18T20:44:19.118Z,10.35
2023-02-18T20:46:46.580Z,10.23
2023-02-18T20:49:16.532Z,10.18
2023-02-18T20:51:43.827Z,10.19
2023-02-18T20:54:15.648Z,10.25
2023-02-18T20:56:43.765Z,10.17
2023-02-18T20:59:14.485Z,10.21
2023-02-18T21:01:42.945Z,10.17
2023-02-18T21:04:13.606Z,10.18
2023-02-18T21:06:40.337Z,10.28
2023-02-18T21:09:07.365Z,10.28
2023-02-18T21:11:33.937Z,10.26
2023-02-18T21:14:00.833Z,10.25
2023-02-18T21:16:28.801Z,10.19
2023-02-18T21:18:55.611Z,10.18
2023-02-18T21:21:25.349Z,10.19
2023-02-18T21:23:52.317Z,10.14
2023-02-18T21:26:21.611Z,11.30
2023-02-18T21:28:50.353Z,12.28
2023-02-18T21:31:29.441Z,11.58
2023-02-18T21:33:56.739Z,11.17
2023-02-18T21:36:23.679Z,10.87
2023-02-18T21:38:54.664Z,10.67
2023-02-18T21:41:21.750Z,10.56
2023-02-18T21:43:48.664Z,10.44
2023-02-18T21:46:26.770Z,10.49
2023-02-18T21:49:03.092Z,10.38
2023-02-18T21:51:50.078Z,10.25
2023-02-18T21:54:21.934Z,10.17
2023-02-18T21:56:49.171Z,10.14
2023-02-18T21:59:16.420Z,10.16
2023-02-18T22:01:43.142Z,10.09
2023-02-18T22:04:09.946Z,10.16
2023-02-18T22:06:36.504Z,10.15
2023-02-18T22:09:05.227Z,10.12
2023-02-18T22:11:32.163Z,10.15
2023-02-18T22:13:59.055Z,11.11
2023-02-18T22:16:28.246Z,10.54
2023-02-18T22:18:57.312Z,10.45
2023-02-18T22:21:24.847Z,10.39
2023-02-18T22:23:51.413Z,10.24
2023-02-18T22:26:18.177Z,10.25
2023-02-18T22:28:50.165Z,10.20
2023-02-18T22:31:16.811Z,10.12
2023-02-18T22:33:43.509Z,10.06
2023-02-18T22:36:10.440Z,10.09
2023-02-18T22:38:38.163Z,10.02
2023-02-18T22:41:10.995Z,9.94
2023-02-18T22:43:38.106Z,9.86
2023-02-18T22:48:40.277Z,9.90
2023-02-18T22:51:09.743Z,9.92
2023-02-18T22:53:37.330Z,9.95
2023-02-18T22:56:09.025Z,9.85
2023-02-18T22:58:36.646Z,9.93
2023-02-18T23:01:03.794Z,9.91
2023-02-18T23:03:30.818Z,9.90
2023-02-18T23:06:05.770Z,9.89
2023-02-18T23:08:33.472Z,9.83
2023-02-18T23:11:04.946Z,9.86
2023-02-18T23:13:31.952Z,9.85
2023-02-18T23:16:00.126Z,9.85
2023-02-18T23:18:27.650Z,9.90
2023-02-18T23:21:18.558Z,9.83
2023-02-18T23:23:46.733Z,9.83
2023-02-18T23:26:14.532Z,9.85
2023-02-18T23:28:50.410Z,9.86
2023-02-18T23:31:27.759Z,9.79
2023-02-18T23:33:59.976Z,9.90
2023-02-18T23:36:28.686Z,9.88
2023-02-18T23:38:57.290Z,9.76
2023-02-18T23:41:24.637Z,9.79
2023-02-18T23:43:51.292Z,9.76
2023-02-18T23:46:20.538Z,9.73
2023-02-18T23:48:48.062Z,9.76
2023-02-18T23:51:17.891Z,9.75
2023-02-18T23:53:45.000Z,9.69
2023-02-18T23:56:19.261Z,9.80
2023-02-18T23:58:52.292Z,9.71
